Time;durP1;ratioP1;P1;durP2;ratioP2;P2;SDS_P1;SDS_P2;PMS_P1;PMS_P2;Temp;Humidity;BMP_temperature;BMP_pressure;BME280_temperature;BME280_humidity;BME280_pressure;Samples;Min_cycle;Max_cycle;Signal;HPM_P1;HPM_P2
2024/01/16 00:00:15;;;;;;;6.15;1.40;;;1.60;99.90;;;;;;5094186;28;20028;-39
2024/01/16 00:02:41;;;;;;;5.72;1.27;;;1.70;99.90;;;;;;5094128;28;20036;-38
2024/01/16 00:05:06;;;;;;;4.43;0.60;;;1.70;99.90;;;;;;5105916;28;20490;-38
2024/01/16 00:07:34;;;;;;;0.15;0.15;;;1.70;99.90;;;;;;5114769;28;20068;-41
2024/01/16 00:10:00;;;;;;;3.80;0.70;;;1.70;99.90;;;;;;5114349;28;20555;-38
2024/01/16 00:12:25;;;;;;;3.47;0.85;;;1.80;99.90;;;;;;5114331;28;20039;-39
2024/01/16 00:14:51;;;;;;;11.18;0.85;;;1.80;99.90;;;;;;5114440;28;20160;-38
2024/01/16 00:17:17;;;;;;;0.77;0.35;;;1.80;99.90;;;;;;5114504;28;20027;-38
2024/01/16 00:19:42;;;;;;;0.75;0.60;;;1.80;99.90;;;;;;5114242;28;20073;-39
2024/01/16 00:22:08;;;;;;;1.98;0.77;;;1.70;99.90;;;;;;5113327;28;20031;-38
2024/01/16 00:24:34;;;;;;;11.00;0.65;;;1.60;99.90;;;;;;5114040;28;20653;-37
2024/01/16 00:27:00;;;;;;;0.52;0.40;;;1.70;99.90;;;;;;5114093;28;20031;-39
2024/01/16 00:29:25;;;;;;;2.42;0.88;;;1.60;99.90;;;;;;5114015;28;20032;-60
2024/01/16 00:31:51;;;;;;;5.78;1.05;;;1.60;99.90;;;;;;5114189;28;20028;-38
2024/01/16 00:34:16;;;;;;;2.58;0.80;;;1.60;99.90;;;;;;5113954;28;20029;-37
2024/01/16 00:36:42;;;;;;;1.35;0.52;;;1.60;99.90;;;;;;5113936;28;20023;-37
2024/01/16 00:39:08;;;;;;;3.90;0.85;;;1.70;99.90;;;;;;5113013;28;20053;-37
2024/01/16 00:41:33;;;;;;;7.30;0.88;;;1.80;99.90;;;;;;5113809;28;20024;-37
2024/01/16 00:43:59;;;;;;;1.40;0.45;;;1.80;99.90;;;;;;5109155;27;20027;-37
2024/01/16 00:46:25;;;;;;;3.45;0.80;;;1.90;99.90;;;;;;5106369;28;20035;-37
2024/01/16 00:48:50;;;;;;;2.58;0.85;;;1.90;99.90;;;;;;5113914;28;20040;-63
2024/01/16 00:51:16;;;;;;;6.57;1.00;;;1.90;99.90;;;;;;5093760;28;20067;-39
2024/01/16 00:53:43;;;;;;;3.38;1.98;;;1.90;99.90;;;;;;5093251;28;20055;-37
2024/01/16 00:56:09;;;;;;;7.53;1.13;;;1.90;99.90;;;;;;5093216;28;20032;-37
2024/01/16 00:58:35;;;;;;;6.95;0.95;;;2.00;99.90;;;;;;5092631;28;20388;-37
2024/01/16 01:01:01;;;;;;;3.42;0.88;;;2.00;99.90;;;;;;5093897;28;20036;-37
2024/01/16 01:03:26;;;;;;;2.13;0.88;;;2.00;99.90;;;;;;5112707;28;20028;-37
2024/01/16 01:05:52;;;;;;;2.03;0.57;;;2.00;99.90;;;;;;5113456;28;20387;-38
2024/01/16 01:08:18;;;;;;;1.95;0.35;;;2.00;99.90;;;;;;5108581;28;20559;-37
2024/01/16 01:10:44;;;;;;;1.77;0.47;;;2.00;99.90;;;;;;5092655;28;20083;-38
2024/01/16 01:13:09;;;;;;;3.78;0.77;;;2.00;99.90;;;;;;5093002;28;20065;-37
2024/01/16 01:15:35;;;;;;;2.50;0.57;;;2.00;99.90;;;;;;5093001;28;20464;-37
2024/01/16 01:18:01;;;;;;;7.63;1.23;;;2.00;99.90;;;;;;5093558;28;20024;-37
2024/01/16 01:20:26;;;;;;;3.88;0.93;;;2.00;99.90;;;;;;5092906;28;20072;-39
2024/01/16 01:22:52;;;;;;;1.40;0.80;;;2.00;99.90;;;;;;5092871;28;20031;-37
2024/01/16 01:25:18;;;;;;;7.45;0.95;;;2.00;99.90;;;;;;5092963;28;20107;-38
2024/01/16 01:27:43;;;;;;;6.10;0.57;;;2.00;99.90;;;;;;5092862;28;20366;-53
2024/01/16 01:30:10;;;;;;;1.65;0.40;;;2.10;99.90;;;;;;5092792;28;20075;-37
2024/01/16 01:32:36;;;;;;;5.18;0.60;;;2.10;99.90;;;;;;5091904;28;20024;-38
2024/01/16 01:35:02;;;;;;;5.43;0.82;;;2.20;99.90;;;;;;5093355;28;20031;-37
2024/01/16 01:37:28;;;;;;;7.32;0.40;;;2.10;99.90;;;;;;5092759;28;20033;-38
2024/01/16 01:39:54;;;;;;;6.95;0.75;;;2.10;99.90;;;;;;5091461;28;20081;-37
2024/01/16 01:42:19;;;;;;;7.57;0.88;;;2.00;99.90;;;;;;5092743;28;20028;-38
2024/01/16 01:44:45;;;;;;;5.88;0.60;;;1.90;99.90;;;;;;5092661;28;20024;-39
2024/01/16 01:47:11;;;;;;;1.27;0.52;;;1.80;99.90;;;;;;5092649;28;20085;-38
2024/01/16 01:49:38;;;;;;;10.43;0.63;;;1.70;99.90;;;;;;5092544;28;20040;-39
2024/01/16 01:52:05;;;;;;;5.97;1.13;;;1.60;99.90;;;;;;5104237;28;20491;-39
2024/01/16 01:54:35;;;;;;;1.98;0.40;;;1.60;99.90;;;;;;5112990;28;20391;-46
2024/01/16 01:57:02;;;;;;;0.20;0.20;;;1.50;99.90;;;;;;5097080;28;20030;-64
2024/01/16 01:59:30;;;;;;;0.57;0.22;;;1.40;99.90;;;;;;5092630;28;20035;-44
2024/01/16 02:01:56;;;;;;;;;;;1.50;99.90;;;;;;5093000;28;20020;-39
2024/01/16 02:04:23;;;;;;;0.60;0.25;;;1.50;99.90;;;;;;5091758;28;19908;-39
2024/01/16 02:06:49;;;;;;;0.20;0.10;;;1.50;99.90;;;;;;5091545;28;20098;-40
2024/01/16 02:09:15;;;;;;;0.68;0.40;;;1.60;99.90;;;;;;5093464;28;20468;-50
2024/01/16 02:11:41;;;;;;;1.40;0.38;;;1.50;99.90;;;;;;5096280;28;20099;-54
2024/01/16 02:14:07;;;;;;;2.47;0.38;;;1.50;99.90;;;;;;5096266;28;20024;-54
2024/01/16 02:16:40;;;;;;;2.10;0.52;;;1.60;99.90;;;;;;5106363;28;20573;-52
2024/01/16 02:19:07;;;;;;;6.32;0.45;;;1.60;99.90;;;;;;5116846;28;20035;-51
2024/01/16 02:21:38;;;;;;;4.25;0.25;;;1.70;99.90;;;;;;5116482;28;20487;-52
2024/01/16 02:24:07;;;;;;;0.35;0.10;;;1.70;99.90;;;;;;5115206;28;20055;-53
2024/01/16 02:26:33;;;;;;;1.55;0.10;;;1.70;99.90;;;;;;5115549;28;20074;-54
2024/01/16 02:29:02;;;;;;;0.32;0.20;;;1.80;99.90;;;;;;5116377;28;20035;-50
2024/01/16 02:31:27;;;;;;;0.50;0.10;;;1.80;99.90;;;;;;5107580;28;20055;-51
2024/01/16 02:33:53;;;;;;;0.52;0.13;;;1.80;99.90;;;;;;5096272;28;20423;-52
2024/01/16 02:36:19;;;;;;;0.60;0.00;;;1.80;99.90;;;;;;5096112;28;20099;-52
2024/01/16 02:38:44;;;;;;;2.55;0.22;;;1.80;99.90;;;;;;5095954;28;20020;-54
2024/01/16 02:41:13;;;;;;;1.42;0.93;;;1.80;99.90;;;;;;5108882;28;20027;-52
2024/01/16 02:43:39;;;;;;;2.65;0.20;;;1.90;99.90;;;;;;5116104;28;20032;-53
2024/01/16 02:46:04;;;;;;;0.55;0.10;;;1.90;99.90;;;;;;5116103;28;20468;-52
2024/01/16 02:48:30;;;;;;;2.17;0.20;;;1.90;99.90;;;;;;5116222;28;20030;-52
2024/01/16 02:50:56;;;;;;;2.65;0.17;;;1.90;99.90;;;;;;5115863;28;20429;-52
2024/01/16 02:53:21;;;;;;;1.65;0.03;;;1.90;99.90;;;;;;5115910;28;20024;-53
2024/01/16 02:55:47;;;;;;;1.65;0.10;;;1.90;99.90;;;;;;5114616;28;20422;-53
2024/01/16 02:58:13;;;;;;;2.97;0.10;;;1.90;99.90;;;;;;5098801;28;20099;-54
2024/01/16 03:00:38;;;;;;;1.55;0.20;;;1.90;99.90;;;;;;5095359;28;20436;-54
2024/01/16 03:03:04;;;;;;;0.20;0.00;;;1.90;99.90;;;;;;5095570;28;20127;-52
2024/01/16 03:05:30;;;;;;;0.22;0.13;;;2.00;99.90;;;;;;5095322;28;20035;-53
2024/01/16 03:07:56;;;;;;;6.55;0.85;;;1.90;99.90;;;;;;5095217;28;20544;-52
2024/01/16 03:10:21;;;;;;;2.75;0.52;;;1.90;99.90;;;;;;5094895;28;20451;-53
2024/01/16 03:12:47;;;;;;;0.10;0.10;;;1.90;99.90;;;;;;5095138;28;20050;-51
2024/01/16 03:15:13;;;;;;;2.22;0.20;;;1.80;99.90;;;;;;5095107;28;20548;-53
2024/01/16 03:17:38;;;;;;;2.63;0.35;;;1.90;99.90;;;;;;5095045;28;20028;-54
2024/01/16 03:20:04;;;;;;;2.50;0.40;;;1.80;99.90;;;;;;5093286;28;20379;-52
2024/01/16 03:22:30;;;;;;;0.10;0.10;;;1.70;99.90;;;;;;5095081;28;20475;-53
2024/01/16 03:24:56;;;;;;;2.38;0.30;;;1.80;99.90;;;;;;5094953;28;20165;-51
2024/01/16 03:27:22;;;;;;;3.33;0.70;;;1.70;99.90;;;;;;5094882;28;20032;-51
2024/01/16 03:29:47;;;;;;;1.08;0.55;;;1.70;99.90;;;;;;5094854;28;20024;-62
2024/01/16 03:32:14;;;;;;;1.42;0.30;;;1.70;99.90;;;;;;5094720;28;20058;-54
2024/01/16 03:34:40;;;;;;;0.80;0.10;;;1.80;99.90;;;;;;5094734;28;20028;-51
2024/01/16 03:37:05;;;;;;;1.55;0.57;;;1.70;99.90;;;;;;5094990;28;20483;-51
2024/01/16 03:39:31;;;;;;;6.22;0.22;;;1.70;99.90;;;;;;5110571;28;20106;-39
2024/01/16 03:41:57;;;;;;;2.40;0.30;;;1.80;99.90;;;;;;5095107;28;20032;-61
2024/01/16 03:44:22;;;;;;;0.45;0.15;;;1.80;99.90;;;;;;5094613;28;20035;-38
2024/01/16 03:46:48;;;;;;;3.72;0.55;;;1.90;99.90;;;;;;5094511;28;20086;-38
2024/01/16 03:49:13;;;;;;;8.82;0.28;;;1.90;99.90;;;;;;5094388;28;20028;-38
2024/01/16 03:51:42;;;;;;;0.45;0.13;;;1.90;99.90;;;;;;5093028;28;20043;-40
2024/01/16 03:54:08;;;;;;;3.25;0.50;;;2.00;99.90;;;;;;5093109;28;20065;-37
2024/01/16 03:56:33;;;;;;;0.20;0.13;;;1.90;99.90;;;;;;5093085;28;20095;-37
2024/01/16 03:58:59;;;;;;;1.98;0.20;;;2.00;99.90;;;;;;5094271;28;20024;-38
2024/01/16 04:01:32;;;;;;;0.45;0.45;;;2.00;99.90;;;;;;5094212;28;20480;-38
2024/01/16 04:03:57;;;;;;;6.80;0.85;;;2.00;99.90;;;;;;5094168;28;20032;-39
2024/01/16 04:06:23;;;;;;;4.30;0.85;;;2.00;99.90;;;;;;5094099;28;20031;-38
2024/01/16 04:08:49;;;;;;;3.53;0.50;;;2.00;99.90;;;;;;5094322;28;20047;-37
2024/01/16 04:11:15;;;;;;;9.38;0.55;;;1.90;99.90;;;;;;5093832;28;20055;-38
2024/01/16 04:13:42;;;;;;;2.85;0.60;;;1.90;99.90;;;;;;5094000;28;20020;-54
2024/01/16 04:16:08;;;;;;;2.03;0.30;;;1.90;99.90;;;;;;5092665;28;20020;-39
2024/01/16 04:18:40;;;;;;;4.63;0.88;;;1.90;99.90;;;;;;5093941;28;20025;-38
2024/01/16 04:21:06;;;;;;;0.13;0.10;;;1.90;99.90;;;;;;5093865;28;20047;-40
2024/01/16 04:23:32;;;;;;;3.53;0.60;;;1.80;99.90;;;;;;5093753;28;20055;-37
2024/01/16 04:25:58;;;;;;;3.30;0.40;;;1.80;99.90;;;;;;5093819;28;20028;-39
2024/01/16 04:28:24;;;;;;;0.65;0.45;;;1.90;99.90;;;;;;5093765;28;20032;-38
2024/01/16 04:30:50;;;;;;;0.43;0.30;;;1.90;99.90;;;;;;5093650;28;20476;-37
2024/01/16 04:33:16;;;;;;;3.17;1.05;;;2.00;99.90;;;;;;5092876;28;20020;-38
2024/01/16 04:35:42;;;;;;;1.17;0.40;;;2.00;99.90;;;;;;5093561;28;20081;-38
2024/01/16 04:38:07;;;;;;;6.15;0.73;;;2.10;99.90;;;;;;5097934;28;20373;-39
2024/01/16 04:40:33;;;;;;;0.90;0.47;;;2.10;99.90;;;;;;5105630;28;20024;-74
2024/01/16 04:42:59;;;;;;;2.60;0.82;;;2.10;99.90;;;;;;5093720;28;20085;-40
2024/01/16 04:45:25;;;;;;;3.05;0.68;;;2.10;99.90;;;;;;5093397;28;20024;-46
2024/01/16 04:47:51;;;;;;;0.77;0.65;;;2.10;99.90;;;;;;5093275;28;20031;-45
2024/01/16 04:50:18;;;;;;;0.93;0.30;;;2.10;99.90;;;;;;5093198;28;20035;-39
2024/01/16 04:52:43;;;;;;;2.53;0.52;;;2.10;99.90;;;;;;5093257;28;20028;-38
2024/01/16 04:55:09;;;;;;;0.43;0.40;;;2.10;99.90;;;;;;5093337;28;20384;-53
2024/01/16 04:57:34;;;;;;;2.88;0.95;;;2.10;99.90;;;;;;5093187;28;20024;-53
2024/01/16 05:00:00;;;;;;;5.18;0.82;;;2.10;99.90;;;;;;5093235;28;20013;-56
2024/01/16 05:02:26;;;;;;;4.65;1.10;;;2.10;99.90;;;;;;5093118;28;20024;-53
2024/01/16 05:04:52;;;;;;;1.33;0.43;;;2.10;99.90;;;;;;5093111;28;20604;-53
2024/01/16 05:07:23;;;;;;;1.55;0.38;;;2.20;99.90;;;;;;5093335;28;20099;-54
2024/01/16 05:09:49;;;;;;;0.80;0.63;;;2.20;99.90;;;;;;5091707;28;20557;-54
2024/01/16 05:12:15;;;;;;;3.28;0.57;;;2.20;99.90;;;;;;5093221;28;20498;-51
2024/01/16 05:14:40;;;;;;;2.67;0.60;;;2.20;99.90;;;;;;5093300;28;20020;-52
2024/01/16 05:17:06;;;;;;;1.70;0.55;;;2.20;99.90;;;;;;5092963;28;20052;-54
2024/01/16 05:19:32;;;;;;;1.95;0.98;;;2.30;99.90;;;;;;5093218;28;20081;-54
2024/01/16 05:21:57;;;;;;;2.10;0.55;;;2.30;99.90;;;;;;5091588;28;20038;-54
2024/01/16 05:24:23;;;;;;;2.70;0.60;;;2.30;99.90;;;;;;5092926;28;20434;-52
2024/01/16 05:26:49;;;;;;;8.27;0.85;;;2.30;99.90;;;;;;5092881;28;20087;-52
2024/01/16 05:29:14;;;;;;;4.82;0.60;;;2.30;99.90;;;;;;5092818;28;20050;-54
2024/01/16 05:31:43;;;;;;;1.67;0.60;;;2.30;99.90;;;;;;5092749;28;20056;-53
2024/01/16 05:34:12;;;;;;;4.07;0.65;;;2.30;99.90;;;;;;5092810;28;20081;-53
2024/01/16 05:36:37;;;;;;;5.00;1.40;;;2.30;99.90;;;;;;5092799;28;20024;-52
2024/01/16 05:39:03;;;;;;;1.83;0.60;;;2.30;99.90;;;;;;5104922;28;20026;-63
2024/01/16 05:41:35;;;;;;;2.70;0.82;;;2.30;99.90;;;;;;5097108;28;20024;-54
2024/01/16 05:44:03;;;;;;;3.58;0.90;;;2.40;99.90;;;;;;5095173;28;20484;-54
2024/01/16 05:46:29;;;;;;;;;;;2.30;99.90;;;;;;5097219;28;20035;-55
2024/01/16 05:48:55;;;;;;;5.53;0.80;;;2.30;99.90;;;;;;5096633;28;19911;-55
2024/01/16 05:51:21;;;;;;;2.40;0.80;;;2.20;99.90;;;;;;5096682;28;20029;-55
2024/01/16 05:53:46;;;;;;;4.75;1.13;;;2.20;99.90;;;;;;5096672;28;20464;-42
2024/01/16 05:56:12;;;;;;;5.55;1.40;;;2.10;99.90;;;;;;5096692;28;20028;-39
2024/01/16 05:58:39;;;;;;;2.65;0.93;;;2.10;99.90;;;;;;5096549;28;20020;-42
2024/01/16 06:01:05;;;;;;;1.70;0.70;;;2.10;99.90;;;;;;5096534;28;20024;-40
2024/01/16 06:03:31;;;;;;;10.15;1.10;;;2.10;99.90;;;;;;5096515;28;20020;-54
2024/01/16 06:05:56;;;;;;;5.85;0.80;;;2.10;99.90;;;;;;5096528;28;20032;-39
2024/01/16 06:08:22;;;;;;;4.38;1.60;;;2.10;99.90;;;;;;5096680;28;20476;-38
2024/01/16 06:10:47;;;;;;;9.40;2.03;;;2.10;99.90;;;;;;5096088;28;20046;-39
2024/01/16 06:13:13;;;;;;;1.48;1.00;;;2.10;99.90;;;;;;5096293;28;20408;-38
2024/01/16 06:15:39;;;;;;;4.30;0.75;;;2.10;99.90;;;;;;5096275;28;20027;-40
2024/01/16 06:18:04;;;;;;;2.58;0.90;;;2.10;99.90;;;;;;5096191;28;20035;-38
2024/01/16 06:20:30;;;;;;;4.28;1.15;;;2.20;99.90;;;;;;5096161;28;20020;-38
2024/01/16 06:22:56;;;;;;;1.95;0.55;;;2.20;99.90;;;;;;5096106;28;20028;-38
2024/01/16 06:25:22;;;;;;;1.42;0.90;;;2.20;99.90;;;;;;5096069;28;20369;-38
2024/01/16 06:27:48;;;;;;;2.28;0.93;;;2.30;99.90;;;;;;5096012;28;20020;-38
2024/01/16 06:30:13;;;;;;;1.95;1.13;;;2.30;99.90;;;;;;5095990;28;20122;-39
2024/01/16 06:32:39;;;;;;;3.92;1.40;;;2.20;99.90;;;;;;5095887;28;20020;-38
2024/01/16 06:35:05;;;;;;;5.40;1.30;;;2.20;99.90;;;;;;5094614;28;20066;-43
2024/01/16 06:37:31;;;;;;;11.48;2.17;;;2.20;99.90;;;;;;5095841;28;20065;-39
2024/01/16 06:39:57;;;;;;;1.92;0.90;;;2.20;99.90;;;;;;5112453;28;20028;-40
2024/01/16 06:42:22;;;;;;;11.40;1.73;;;2.10;99.90;;;;;;5095692;28;20476;-39
2024/01/16 06:44:48;;;;;;;3.65;1.73;;;2.00;99.90;;;;;;5094650;28;20028;-38
2024/01/16 06:47:13;;;;;;;5.70;2.05;;;1.90;99.90;;;;;;5095614;28;20391;-40
2024/01/16 06:49:39;;;;;;;7.07;1.58;;;1.90;99.90;;;;;;5095555;28;20047;-38
2024/01/16 06:52:06;;;;;;;1.88;1.30;;;2.00;99.90;;;;;;5095519;28;20039;-41
2024/01/16 06:54:32;;;;;;;4.88;1.65;;;2.10;99.90;;;;;;5094769;28;20077;-40
2024/01/16 06:56:57;;;;;;;7.25;1.77;;;2.10;99.90;;;;;;5095481;28;20480;-39
2024/01/16 06:59:23;;;;;;;6.93;2.17;;;2.10;99.90;;;;;;5095529;28;20028;-42
2024/01/16 07:01:49;;;;;;;2.42;1.40;;;2.20;99.90;;;;;;5095674;28;20098;-55
2024/01/16 07:04:14;;;;;;;2.20;1.73;;;2.20;99.90;;;;;;5095244;28;20035;-55
2024/01/16 07:06:40;;;;;;;2.38;1.42;;;2.20;99.90;;;;;;5095320;28;20028;-54
2024/01/16 07:09:06;;;;;;;3.95;2.22;;;2.20;99.90;;;;;;5095168;28;20030;-55
2024/01/16 07:11:31;;;;;;;1.42;1.33;;;2.20;99.90;;;;;;5094970;28;20047;-60
2024/01/16 07:13:57;;;;;;;2.22;1.60;;;2.20;99.90;;;;;;5095175;28;20095;-52
2024/01/16 07:16:23;;;;;;;1.98;1.63;;;2.20;99.90;;;;;;5095241;28;20036;-39
2024/01/16 07:18:49;;;;;;;2.63;1.55;;;2.20;99.90;;;;;;5095021;28;20024;-42
2024/01/16 07:21:23;;;;;;;2.40;1.73;;;2.20;99.90;;;;;;5094932;28;20496;-40
2024/01/16 07:23:48;;;;;;;2.70;1.70;;;2.10;99.90;;;;;;5094930;28;20039;-38
2024/01/16 07:26:14;;;;;;;3.00;1.30;;;2.20;99.90;;;;;;5094934;28;20028;-39
2024/01/16 07:28:40;;;;;;;4.38;2.00;;;2.20;99.90;;;;;;5094868;28;20428;-38
2024/01/16 07:31:05;;;;;;;2.78;1.75;;;2.20;99.90;;;;;;5094765;28;20400;-60
2024/01/16 07:33:32;;;;;;;4.20;2.13;;;2.10;99.90;;;;;;5094683;28;20027;-40
2024/01/16 07:35:58;;;;;;;6.22;2.28;;;2.10;99.90;;;;;;5094788;28;20035;-38
2024/01/16 07:38:23;;;;;;;8.18;2.30;;;2.10;99.90;;;;;;5101061;28;20491;-39
2024/01/16 07:40:49;;;;;;;10.73;1.88;;;2.20;99.90;;;;;;5104531;28;20034;-38
2024/01/16 07:43:14;;;;;;;7.40;1.58;;;2.10;99.90;;;;;;5094620;28;20020;-39
2024/01/16 07:45:40;;;;;;;9.20;1.90;;;2.10;99.90;;;;;;5094535;28;20507;-44
2024/01/16 07:48:06;;;;;;;5.63;1.50;;;2.10;99.90;;;;;;5094413;28;20035;-37
2024/01/16 07:50:31;;;;;;;7.07;2.13;;;2.10;99.90;;;;;;5094491;28;20634;-39
2024/01/16 07:52:57;;;;;;;5.93;2.05;;;2.10;99.90;;;;;;5094351;28;20063;-37
2024/01/16 07:55:22;;;;;;;4.93;1.38;;;2.10;99.90;;;;;;5094342;28;20059;-61
2024/01/16 07:57:48;;;;;;;6.55;1.40;;;2.00;99.90;;;;;;5094291;28;20499;-39
2024/01/16 08:00:15;;;;;;;6.22;1.38;;;2.10;99.90;;;;;;5100062;28;20106;-40
2024/01/16 08:02:41;;;;;;;9.02;1.70;;;2.10;99.90;;;;;;5114639;28;20047;-38
2024/01/16 08:05:07;;;;;;;8.10;2.28;;;2.10;99.90;;;;;;5113923;28;20077;-38
2024/01/16 08:07:34;;;;;;;5.97;1.48;;;2.10;99.90;;;;;;5114724;28;20429;-53
2024/01/16 08:10:00;;;;;;;11.98;2.63;;;2.00;99.90;;;;;;5112870;28;20063;-55
2024/01/16 08:12:26;;;;;;;1.83;1.45;;;2.10;99.90;;;;;;5114194;28;20020;-51
2024/01/16 08:14:52;;;;;;;7.22;1.08;;;2.10;99.90;;;;;;5114269;28;20032;-55
2024/01/16 08:17:17;;;;;;;5.05;1.63;;;2.10;99.90;;;;;;5114445;27;20035;-54
2024/01/16 08:19:43;;;;;;;11.13;1.75;;;2.10;99.90;;;;;;5114328;28;20026;-50
2024/01/16 08:22:09;;;;;;;4.57;0.93;;;2.10;99.90;;;;;;5113639;28;20019;-54
2024/01/16 08:24:34;;;;;;;4.22;1.20;;;2.00;99.90;;;;;;5114205;28;20115;-53
2024/01/16 08:27:00;;;;;;;7.70;1.23;;;2.00;99.90;;;;;;5114260;28;20027;-70
2024/01/16 08:29:26;;;;;;;8.73;1.02;;;2.00;99.90;;;;;;5113985;28;20028;-52
2024/01/16 08:31:52;;;;;;;7.78;1.85;;;2.00;99.90;;;;;;5113969;28;20023;-53
2024/01/16 08:34:18;;;;;;;3.70;0.68;;;2.10;99.90;;;;;;5112674;28;20398;-55
2024/01/16 08:36:44;;;;;;;4.50;1.17;;;2.10;99.90;;;;;;5113948;28;20024;-55
2024/01/16 08:39:10;;;;;;;2.83;0.98;;;2.10;99.90;;;;;;5101392;28;20035;-63
2024/01/16 08:41:36;;;;;;;2.58;1.38;;;2.10;99.90;;;;;;5093359;28;20078;-61
2024/01/16 08:44:02;;;;;;;6.47;0.95;;;2.10;99.90;;;;;;5093456;28;20512;-53
2024/01/16 08:46:27;;;;;;;9.40;1.27;;;2.10;99.90;;;;;;5093336;28;20036;-55
2024/01/16 08:48:53;;;;;;;6.57;1.70;;;2.10;99.90;;;;;;5093253;28;20028;-54
2024/01/16 08:51:19;;;;;;;4.65;1.35;;;2.10;99.90;;;;;;5093553;28;20036;-55
2024/01/16 08:53:45;;;;;;;5.75;1.00;;;2.10;99.90;;;;;;5093280;28;20469;-55
2024/01/16 08:56:12;;;;;;;6.90;2.22;;;2.10;99.90;;;;;;5097958;28;20363;-56
2024/01/16 08:58:38;;;;;;;3.75;1.10;;;2.20;99.90;;;;;;5112328;28;20024;-56
2024/01/16 09:01:05;;;;;;;4.63;1.27;;;2.30;99.90;;;;;;5113791;28;20576;-54
2024/01/16 09:03:34;;;;;;;7.47;1.63;;;2.30;99.90;;;;;;5113463;28;20114;-53
2024/01/16 09:06:00;;;;;;;6.55;1.40;;;2.30;99.90;;;;;;5113476;28;20538;-53
2024/01/16 09:08:26;;;;;;;7.93;1.33;;;2.30;99.90;;;;;;5113541;27;20440;-53
2024/01/16 09:10:56;;;;;;;2.78;0.77;;;2.40;99.90;;;;;;5113165;28;20126;-55
2024/01/16 09:13:23;;;;;;;2.05;1.05;;;2.30;99.90;;;;;;5112876;28;20049;-53
2024/01/16 09:15:49;;;;;;;7.25;1.40;;;2.40;99.90;;;;;;5111148;28;20480;-53
2024/01/16 09:18:15;;;;;;;4.22;1.33;;;2.40;99.90;;;;;;5092484;28;20077;-54
2024/01/16 09:20:42;;;;;;;9.90;1.55;;;2.40;99.90;;;;;;5092928;28;20028;-55
2024/01/16 09:23:08;;;;;;;5.53;0.80;;;2.40;99.90;;;;;;5092910;28;20097;-55
2024/01/16 09:25:34;;;;;;;3.85;1.77;;;2.40;99.90;;;;;;5092892;28;20036;-51
2024/01/16 09:28:00;;;;;;;3.42;1.35;;;2.40;99.90;;;;;;5092867;28;20024;-70
2024/01/16 09:30:26;;;;;;;7.63;0.90;;;2.40;99.90;;;;;;5091603;28;20093;-55
2024/01/16 09:32:52;;;;;;;4.93;1.25;;;2.40;99.90;;;;;;5092805;28;20144;-55
2024/01/16 09:35:18;;;;;;;4.10;1.02;;;2.40;99.90;;;;;;5092931;28;20432;-53
2024/01/16 09:37:43;;;;;;;5.68;1.30;;;2.40;99.90;;;;;;5092730;28;20391;-55
2024/01/16 09:40:10;;;;;;;2.67;1.00;;;2.40;99.90;;;;;;5092693;28;20038;-54
2024/01/16 09:42:36;;;;;;;6.82;1.17;;;2.40;99.90;;;;;;5092694;28;20028;-54
2024/01/16 09:45:02;;;;;;;2.45;1.20;;;2.50;99.90;;;;;;5092739;28;20024;-54
2024/01/16 09:47:31;;;;;;;1.92;1.08;;;2.50;99.90;;;;;;5091354;28;20028;-55
2024/01/16 09:49:59;;;;;;;12.68;1.25;;;2.50;99.90;;;;;;5092640;28;20085;-54
2024/01/16 09:52:26;;;;;;;9.18;1.02;;;2.50;99.90;;;;;;5092873;28;20031;-55
2024/01/16 09:54:51;;;;;;;4.97;1.00;;;2.50;99.90;;;;;;5092575;28;20141;-55
2024/01/16 09:57:22;;;;;;;3.10;1.05;;;2.50;99.90;;;;;;5092599;28;20099;-43
2024/01/16 09:59:48;;;;;;;1.13;0.65;;;2.50;99.90;;;;;;5092636;28;20024;-40
2024/01/16 10:02:14;;;;;;;3.67;1.20;;;2.50;99.90;;;;;;5092537;28;20032;-39
2024/01/16 10:04:41;;;;;;;9.35;1.10;;;2.60;99.90;;;;;;5093077;28;20028;-39
2024/01/16 10:07:09;;;;;;;11.23;1.03;;;2.60;99.90;;;;;;5092494;28;20071;-39
2024/01/16 10:09:35;;;;;;;1.80;1.40;;;2.60;99.90;;;;;;5092394;28;20100;-39
2024/01/16 10:12:02;;;;;;;6.72;1.27;;;2.50;99.90;;;;;;5092418;28;20494;-39
2024/01/16 10:14:29;;;;;;;8.30;1.20;;;2.60;99.90;;;;;;5092434;28;20054;-41
2024/01/16 10:17:02;;;;;;;12.90;1.83;;;2.60;99.90;;;;;;5092665;28;20028;-39
2024/01/16 10:19:29;;;;;;;11.68;1.52;;;2.60;99.90;;;;;;5092385;28;20020;-42
2024/01/16 10:22:06;;;;;;;6.32;1.70;;;2.60;99.90;;;;;;5092921;28;20484;-39
2024/01/16 10:24:35;;;;;;;7.70;2.20;;;2.80;99.90;;;;;;5092612;28;20649;-41
2024/01/16 10:27:06;;;;;;;8.05;1.48;;;2.90;99.90;;;;;;5092513;28;20476;-41
2024/01/16 10:29:32;;;;;;;3.05;0.98;;;3.10;99.90;;;;;;5092650;28;20032;-40
2024/01/16 10:31:58;;;;;;;6.30;1.08;;;3.20;99.90;;;;;;5095790;28;20060;-41
2024/01/16 10:34:24;;;;;;;11.68;1.50;;;3.40;99.90;;;;;;5096025;28;20387;-39
2024/01/16 10:36:52;;;;;;;5.53;1.13;;;3.50;99.90;;;;;;5094616;28;20107;-36
2024/01/16 10:39:18;;;;;;;4.55;2.67;;;3.60;99.90;;;;;;5109292;28;20023;-63
2024/01/16 10:41:59;;;;;;;4.40;1.20;;;3.70;99.90;;;;;;5097965;28;20136;-58
2024/01/16 10:44:27;;;;;;;4.13;1.85;;;3.70;99.90;;;;;;5095731;28;20084;-57
2024/01/16 10:47:09;;;;;;;18.15;2.47;;;3.80;99.90;;;;;;5095808;28;20476;-73
2024/01/16 10:49:35;;;;;;;3.35;1.20;;;3.90;99.90;;;;;;5095668;28;20070;-36
2024/01/16 10:52:01;;;;;;;8.10;1.80;;;3.90;99.90;;;;;;5095540;28;20056;-36
2024/01/16 10:54:28;;;;;;;5.45;1.33;;;4.00;99.90;;;;;;5095593;28;20027;-38
2024/01/16 10:56:55;;;;;;;5.07;1.27;;;3.90;99.90;;;;;;5096081;28;20020;-36
2024/01/16 10:59:28;;;;;;;4.78;1.27;;;3.80;99.90;;;;;;5095538;28;20024;-36
2024/01/16 11:01:58;;;;;;;7.97;1.35;;;3.70;99.90;;;;;;5095481;28;20024;-39
2024/01/16 11:04:24;;;;;;;3.33;1.58;;;3.70;99.90;;;;;;5095324;28;20048;-36
2024/01/16 11:06:52;;;;;;;2.70;1.08;;;3.70;99.90;;;;;;5095592;28;20476;-36
2024/01/16 11:09:18;;;;;;;7.88;1.27;;;3.70;99.90;;;;;;5095425;28;20464;-37
2024/01/16 11:11:45;;;;;;;1.40;1.17;;;3.60;99.90;;;;;;5094451;28;20028;-36
2024/01/16 11:14:16;;;;;;;4.30;1.73;;;3.60;99.90;;;;;;5095422;28;20016;-36
2024/01/16 11:16:42;;;;;;;10.48;1.55;;;3.50;99.90;;;;;;5095186;28;20103;-39
2024/01/16 11:19:11;;;;;;;2.28;1.60;;;3.50;99.90;;;;;;5095102;28;20032;-36
2024/01/16 11:21:39;;;;;;;8.20;1.52;;;3.50;99.90;;;;;;5095034;28;20024;-49
2024/01/16 11:24:05;;;;;;;3.55;1.27;;;3.40;99.90;;;;;;5095046;28;20490;-37
2024/01/16 11:26:36;;;;;;;4.10;1.58;;;3.50;99.90;;;;;;5094985;28;20027;-37
2024/01/16 11:29:27;;;;;;;3.33;1.80;;;3.40;99.90;;;;;;5095668;28;20484;-39
2024/01/16 11:31:53;;;;;;;5.82;1.63;;;3.50;99.90;;;;;;5094658;28;20070;-62
2024/01/16 11:34:40;;;;;;;4.72;1.95;;;3.50;99.90;;;;;;5094841;28;20020;-40
2024/01/16 11:37:12;;;;;;;3.35;1.33;;;3.50;99.90;;;;;;5109134;28;20456;-48
2024/01/16 11:39:37;;;;;;;3.97;0.88;;;3.50;99.90;;;;;;5131120;27;20045;-53
2024/01/16 11:42:03;;;;;;;3.47;1.70;;;3.50;99.90;;;;;;5094318;28;20519;-39
2024/01/16 11:44:38;;;;;;;6.60;1.70;;;3.60;99.90;;;;;;5094583;28;20103;-38
2024/01/16 11:47:05;;;;;;;9.57;1.15;;;3.60;99.90;;;;;;5106666;28;20487;-36
2024/01/16 11:49:34;;;;;;;5.05;1.48;;;3.70;99.90;;;;;;5115049;28;20468;-39
2024/01/16 11:52:00;;;;;;;5.15;1.52;;;3.80;99.90;;;;;;5114690;28;20024;-42
2024/01/16 11:54:25;;;;;;;9.57;1.33;;;3.80;99.90;;;;;;5105160;28;20028;-38
2024/01/16 11:57:14;;;;;;;9.50;1.55;;;3.90;99.90;;;;;;5093271;28;20045;-38
2024/01/16 11:59:59;;;;;;;9.23;1.27;;;4.10;99.90;;;;;;5094297;28;20511;-38
2024/01/16 12:02:52;;;;;;;3.83;1.25;;;4.20;99.90;;;;;;5094494;28;20027;-39
2024/01/16 12:05:19;;;;;;;9.30;1.23;;;4.40;99.90;;;;;;5093083;28;20036;-54
2024/01/16 12:07:52;;;;;;;2.80;1.23;;;4.40;99.90;;;;;;5094128;28;20054;-54
2024/01/16 12:10:19;;;;;;;3.80;1.38;;;4.50;99.90;;;;;;5094010;28;20504;-52
2024/01/16 12:12:46;;;;;;;4.13;1.23;;;4.60;99.90;;;;;;5093942;28;20581;-54
2024/01/16 12:15:21;;;;;;;2.65;1.73;;;4.50;99.90;;;;;;5094285;28;20551;-55
2024/01/16 12:18:01;;;;;;;2.90;1.77;;;4.50;99.90;;;;;;5093927;28;20024;-55
2024/01/16 12:20:29;;;;;;;6.88;1.27;;;4.50;99.90;;;;;;5094445;28;20085;-51
2024/01/16 12:22:59;;;;;;;8.00;1.67;;;4.50;99.90;;;;;;5093769;28;20035;-58
2024/01/16 12:25:29;;;;;;;5.97;1.77;;;4.40;99.90;;;;;;5094039;28;20020;-55
2024/01/16 12:27:59;;;;;;;8.63;1.65;;;4.40;99.90;;;;;;5093776;28;20024;-53
2024/01/16 12:30:30;;;;;;;5.35;1.50;;;4.40;99.90;;;;;;5094025;28;20020;-52
2024/01/16 12:33:09;;;;;;;6.13;2.30;;;4.30;99.90;;;;;;5092522;28;20379;-53
2024/01/16 12:35:47;;;;;;;9.25;1.27;;;4.30;99.90;;;;;;5112842;28;20456;-54
2024/01/16 12:38:13;;;;;;;7.40;2.00;;;4.30;99.90;;;;;;5110775;27;20370;-53
2024/01/16 12:40:41;;;;;;;4.45;1.95;;;4.20;99.90;;;;;;5116141;27;20272;-54
2024/01/16 12:43:11;;;;;;;3.40;1.50;;;4.10;99.90;;;;;;5093485;28;20016;-53
2024/01/16 12:45:37;;;;;;;3.92;1.40;;;4.00;99.90;;;;;;5093446;28;20024;-53
2024/01/16 12:48:06;;;;;;;1.95;0.90;;;3.90;99.90;;;;;;5092027;28;20020;-52
2024/01/16 12:50:32;;;;;;;2.88;1.33;;;3.90;99.90;;;;;;5093537;28;20475;-53
2024/01/16 12:53:09;;;;;;;3.50;1.88;;;3.80;99.90;;;;;;5092871;28;20488;-54
2024/01/16 12:55:39;;;;;;;6.03;1.80;;;3.70;99.90;;;;;;5108086;28;20040;-54